Aérodrome :
LOGIN :

S'inscrire | Disclaimer

   EN    FR    IT 

 










Légende :    VFR   VFR Marginal   IFR   IFR Intensif   IFR Très Intensif
Visi : 
Plafond : 
>= 8 km
>= 3000ft
5 à 8 km
1000 à 3000 ft
1500m à 5 km
500 à 1000 ft
800 à 1500m
200 à 500 ft
< 800m
< 200 ft
Symboles :   Orages  Brouillard  Fortes neiges  Fortes précipitations  Vent > 20 kt
SIGMETs :   Divers  Orages  Givrage  Turbulence  Onde Orograph.  Cendres Volcan.






- Altitude de l'aérodrome : 538 ft
- Code IATA : TNF


LFPN - Toussus Le Noble

DERNIER METAR :
  • 172200Z AUTO 24010KT CAVOK 05/02 Q1024

METARs EXPIRÉS :
  • 172130Z AUTO 24011KT CAVOK 05/02 Q1023
  • 172100Z AUTO 24009KT CAVOK 06/02 Q1023 BECMG 20015G25KT
  • 172030Z AUTO 24010KT CAVOK 06/03 Q1023 BECMG 20015G25KT
  • 172000Z AUTO 25012KT CAVOK 06/03 Q1022 TEMPO BKN030TCU BECMG 20015G25KT
  • 171930Z AUTO 25012KT CAVOK 06/03 Q1022 TEMPO BKN030TCU BECMG 20015G25KT

TAF TAF LFPN
Valide du 17 à 18h jusqu'au 18 à 03h UTC


171700Z 1718/1803 20015G25KT 9999 SCT030
TEMPO 1718/1721 23020G35KT -SHRA BKN030TCU
PROB40
TEMPO 1718/1720 3000 SHRA BKN020 BKN030CB
ATIS : +33 1 39 56 54 70



MET'MAP, la Météo Aéronautique d'un coup d'oeil ! - Copyright ORBIFLY Décembre 2007 - Disclaimer

ORBIFLY MET'MAP TEAM :

Programmation & Développement : Alexandra Zaïnal
Sur une idée originale de : Baudouin d'Aumeries
Assistance à la programmation : Marc-Olivier Méhu
Soutien technique & logistique : Manuel Goepfert

Contact : metmap@orbifly.com




SOURCES & CREDITS :

   NOAA